sensor_id;sensor_type;location;lat;lon;timestamp;temperature;humidity
2997;DHT22;1508;48.744;9.110;2023-01-16T00:00:14;2.30;99.90
2997;DHT22;1508;48.744;9.110;2023-01-16T00:02:59;2.40;99.90
2997;DHT22;1508;48.744;9.110;2023-01-16T00:05:45;2.40;99.90
2997;DHT22;1508;48.744;9.110;2023-01-16T00:08:31;2.50;99.90
2997;DHT22;1508;48.744;9.110;2023-01-16T00:11:17;2.50;99.90
2997;DHT22;1508;48.744;9.110;2023-01-16T00:14:03;2.50;99.90
2997;DHT22;1508;48.744;9.110;2023-01-16T00:16:49;2.50;99.90
2997;DHT22;1508;48.744;9.110;2023-01-16T00:19:34;2.60;99.90
2997;DHT22;1508;48.744;9.110;2023-01-16T00:22:20;2.70;99.90
2997;DHT22;1508;48.744;9.110;2023-01-16T00:25:07;2.70;99.90
2997;DHT22;1508;48.744;9.110;2023-01-16T00:27:52;2.70;99.90
2997;DHT22;1508;48.744;9.110;2023-01-16T00:30:39;2.70;99.90
2997;DHT22;1508;48.744;9.110;2023-01-16T00:33:25;2.70;99.90
2997;DHT22;1508;48.744;9.110;2023-01-16T00:36:11;2.70;99.90
2997;DHT22;1508;48.744;9.110;2023-01-16T00:38:57;2.70;99.90
2997;DHT22;1508;48.744;9.110;2023-01-16T00:41:43;2.60;99.90
2997;DHT22;1508;48.744;9.110;2023-01-16T00:44:29;2.70;99.90
2997;DHT22;1508;48.744;9.110;2023-01-16T00:47:15;2.60;99.90
2997;DHT22;1508;48.744;9.110;2023-01-16T00:50:01;2.70;99.90
2997;DHT22;1508;48.744;9.110;2023-01-16T00:52:47;2.70;99.90
2997;DHT22;1508;48.744;9.110;2023-01-16T00:55:33;2.60;99.90
2997;DHT22;1508;48.744;9.110;2023-01-16T00:58:20;2.60;99.90
2997;DHT22;1508;48.744;9.110;2023-01-16T01:01:05;2.60;99.90
2997;DHT22;1508;48.744;9.110;2023-01-16T01:03:51;2.60;99.90
2997;DHT22;1508;48.744;9.110;2023-01-16T01:06:37;2.60;99.90
2997;DHT22;1508;48.744;9.110;2023-01-16T01:09:23;2.50;99.90
2997;DHT22;1508;48.744;9.110;2023-01-16T01:12:09;2.50;99.90
2997;DHT22;1508;48.744;9.110;2023-01-16T01:14:55;2.40;99.90
2997;DHT22;1508;48.744;9.110;2023-01-16T01:17:41;2.40;99.90
2997;DHT22;1508;48.744;9.110;2023-01-16T01:20:27;2.30;99.90
2997;DHT22;1508;48.744;9.110;2023-01-16T01:23:13;2.30;99.90
2997;DHT22;1508;48.744;9.110;2023-01-16T01:26:04;2.30;99.90
2997;DHT22;1508;48.744;9.110;2023-01-16T01:28:50;2.30;99.90
2997;DHT22;1508;48.744;9.110;2023-01-16T01:31:36;2.30;99.90
2997;DHT22;1508;48.744;9.110;2023-01-16T01:34:22;2.30;99.90
2997;DHT22;1508;48.744;9.110;2023-01-16T01:37:07;2.30;99.90
2997;DHT22;1508;48.744;9.110;2023-01-16T01:39:53;2.20;99.90
2997;DHT22;1508;48.744;9.110;2023-01-16T01:42:40;2.20;99.90
2997;DHT22;1508;48.744;9.110;2023-01-16T01:45:28;2.20;99.90
2997;DHT22;1508;48.744;9.110;2023-01-16T01:51:04;2.20;99.90
2997;DHT22;1508;48.744;9.110;2023-01-16T01:54:17;2.20;99.90
2997;DHT22;1508;48.744;9.110;2023-01-16T02:00:14;2.20;99.90
2997;DHT22;1508;48.744;9.110;2023-01-16T02:03:06;2.20;99.90
2997;DHT22;1508;48.744;9.110;2023-01-16T02:05:55;2.20;99.90
2997;DHT22;1508;48.744;9.110;2023-01-16T02:08:43;2.20;99.90
2997;DHT22;1508;48.744;9.110;2023-01-16T02:11:51;2.20;99.90
2997;DHT22;1508;48.744;9.110;2023-01-16T02:14:41;2.10;99.90
2997;DHT22;1508;48.744;9.110;2023-01-16T02:17:27;2.20;99.90
2997;DHT22;1508;48.744;9.110;2023-01-16T02:23:25;2.20;99.90
2997;DHT22;1508;48.744;9.110;2023-01-16T02:26:35;2.20;99.90
2997;DHT22;1508;48.744;9.110;2023-01-16T02:29:44;2.10;99.90
2997;DHT22;1508;48.744;9.110;2023-01-16T02:35:49;2.10;99.90
2997;DHT22;1508;48.744;9.110;2023-01-16T02:48:12;2.10;99.90
2997;DHT22;1508;48.744;9.110;2023-01-16T02:54:18;2.00;99.90
2997;DHT22;1508;48.744;9.110;2023-01-16T02:57:10;2.00;99.90
2997;DHT22;1508;48.744;9.110;2023-01-16T02:59:59;2.00;99.90
2997;DHT22;1508;48.744;9.110;2023-01-16T03:02:45;2.00;99.90
2997;DHT22;1508;48.744;9.110;2023-01-16T03:05:37;2.00;99.90
2997;DHT22;1508;48.744;9.110;2023-01-16T03:11:25;2.00;99.90
2997;DHT22;1508;48.744;9.110;2023-01-16T03:14:26;2.00;99.90
2997;DHT22;1508;48.744;9.110;2023-01-16T03:20:52;2.10;99.90
2997;DHT22;1508;48.744;9.110;2023-01-16T03:23:54;2.20;99.90
2997;DHT22;1508;48.744;9.110;2023-01-16T03:26:46;2.20;99.90
2997;DHT22;1508;48.744;9.110;2023-01-16T03:29:42;2.20;99.90
2997;DHT22;1508;48.744;9.110;2023-01-16T03:35:29;2.10;99.90
2997;DHT22;1508;48.744;9.110;2023-01-16T03:38:18;2.10;99.90
2997;DHT22;1508;48.744;9.110;2023-01-16T03:41:09;2.20;99.90
2997;DHT22;1508;48.744;9.110;2023-01-16T03:44:03;2.10;99.90
2997;DHT22;1508;48.744;9.110;2023-01-16T03:46:51;2.20;99.90
2997;DHT22;1508;48.744;9.110;2023-01-16T03:49:40;2.10;99.90
2997;DHT22;1508;48.744;9.110;2023-01-16T03:52:34;2.10;99.90
2997;DHT22;1508;48.744;9.110;2023-01-16T03:55:31;2.00;99.90
2997;DHT22;1508;48.744;9.110;2023-01-16T03:58:27;2.00;99.90
2997;DHT22;1508;48.744;9.110;2023-01-16T04:04:41;1.80;99.90
2997;DHT22;1508;48.744;9.110;2023-01-16T04:07:48;1.80;99.90
2997;DHT22;1508;48.744;9.110;2023-01-16T04:10:39;1.80;99.90
2997;DHT22;1508;48.744;9.110;2023-01-16T04:13:31;1.80;99.90
2997;DHT22;1508;48.744;9.110;2023-01-16T04:16:19;1.70;99.90
2997;DHT22;1508;48.744;9.110;2023-01-16T04:19:08;1.70;99.90
2997;DHT22;1508;48.744;9.110;2023-01-16T04:21:57;1.70;99.90
2997;DHT22;1508;48.744;9.110;2023-01-16T04:24:43;1.70;99.90
2997;DHT22;1508;48.744;9.110;2023-01-16T04:27:29;1.70;99.90
2997;DHT22;1508;48.744;9.110;2023-01-16T04:30:15;1.70;99.90
2997;DHT22;1508;48.744;9.110;2023-01-16T04:33:02;1.80;99.90
2997;DHT22;1508;48.744;9.110;2023-01-16T04:35:48;1.80;99.90
2997;DHT22;1508;48.744;9.110;2023-01-16T04:38:34;1.80;99.90
2997;DHT22;1508;48.744;9.110;2023-01-16T04:41:20;1.80;99.90
2997;DHT22;1508;48.744;9.110;2023-01-16T04:44:10;1.80;99.90
2997;DHT22;1508;48.744;9.110;2023-01-16T04:46:55;1.80;99.90
2997;DHT22;1508;48.744;9.110;2023-01-16T04:49:41;1.80;99.90
2997;DHT22;1508;48.744;9.110;2023-01-16T04:52:27;1.80;99.90
2997;DHT22;1508;48.744;9.110;2023-01-16T04:55:13;1.80;99.90
2997;DHT22;1508;48.744;9.110;2023-01-16T04:57:59;1.80;99.90
2997;DHT22;1508;48.744;9.110;2023-01-16T05:00:45;1.80;99.90
2997;DHT22;1508;48.744;9.110;2023-01-16T05:03:31;1.80;99.90
2997;DHT22;1508;48.744;9.110;2023-01-16T05:06:17;1.80;99.90
2997;DHT22;1508;48.744;9.110;2023-01-16T05:09:04;1.80;99.90
2997;DHT22;1508;48.744;9.110;2023-01-16T05:11:50;1.80;99.90
2997;DHT22;1508;48.744;9.110;2023-01-16T05:14:36;1.80;99.90
2997;DHT22;1508;48.744;9.110;2023-01-16T05:17:21;1.80;99.90
2997;DHT22;1508;48.744;9.110;2023-01-16T05:20:08;1.90;99.90
2997;DHT22;1508;48.744;9.110;2023-01-16T05:22:54;1.80;99.90
2997;DHT22;1508;48.744;9.110;2023-01-16T05:25:40;1.90;99.90
2997;DHT22;1508;48.744;9.110;2023-01-16T05:28:26;1.90;99.90
2997;DHT22;1508;48.744;9.110;2023-01-16T05:31:11;1.90;99.90
2997;DHT22;1508;48.744;9.110;2023-01-16T05:33:57;1.90;99.90
2997;DHT22;1508;48.744;9.110;2023-01-16T05:36:43;2.00;99.90
2997;DHT22;1508;48.744;9.110;2023-01-16T05:39:29;2.00;99.90
2997;DHT22;1508;48.744;9.110;2023-01-16T05:42:15;2.00;99.90
2997;DHT22;1508;48.744;9.110;2023-01-16T05:45:00;2.10;99.90
2997;DHT22;1508;48.744;9.110;2023-01-16T05:47:46;2.10;99.90
2997;DHT22;1508;48.744;9.110;2023-01-16T05:50:32;2.20;99.90
2997;DHT22;1508;48.744;9.110;2023-01-16T05:53:18;2.20;99.90
2997;DHT22;1508;48.744;9.110;2023-01-16T05:56:09;2.30;99.90
2997;DHT22;1508;48.744;9.110;2023-01-16T05:58:55;2.30;99.90
2997;DHT22;1508;48.744;9.110;2023-01-16T06:01:43;2.30;99.90
2997;DHT22;1508;48.744;9.110;2023-01-16T06:04:28;2.30;99.90
2997;DHT22;1508;48.744;9.110;2023-01-16T06:07:14;2.40;99.90
2997;DHT22;1508;48.744;9.110;2023-01-16T06:10:00;2.40;99.90
2997;DHT22;1508;48.744;9.110;2023-01-16T06:12:46;2.40;99.90
2997;DHT22;1508;48.744;9.110;2023-01-16T06:15:32;2.40;99.90
2997;DHT22;1508;48.744;9.110;2023-01-16T06:18:18;2.50;99.90
2997;DHT22;1508;48.744;9.110;2023-01-16T06:21:04;2.50;99.90
2997;DHT22;1508;48.744;9.110;2023-01-16T06:23:50;2.40;99.90
2997;DHT22;1508;48.744;9.110;2023-01-16T06:26:35;2.40;99.90
2997;DHT22;1508;48.744;9.110;2023-01-16T06:29:21;2.50;99.90
2997;DHT22;1508;48.744;9.110;2023-01-16T06:32:07;2.50;99.90
2997;DHT22;1508;48.744;9.110;2023-01-16T06:34:53;2.50;99.90
2997;DHT22;1508;48.744;9.110;2023-01-16T06:37:39;2.50;99.90
2997;DHT22;1508;48.744;9.110;2023-01-16T06:40:24;3.50;99.90
2997;DHT22;1508;48.744;9.110;2023-01-16T06:43:11;4.30;99.90
2997;DHT22;1508;48.744;9.110;2023-01-16T06:45:57;3.60;99.90
2997;DHT22;1508;48.744;9.110;2023-01-16T06:48:42;3.40;99.90
2997;DHT22;1508;48.744;9.110;2023-01-16T06:51:28;3.20;99.90
2997;DHT22;1508;48.744;9.110;2023-01-16T06:54:14;3.10;99.90
2997;DHT22;1508;48.744;9.110;2023-01-16T06:57:00;3.00;99.90
2997;DHT22;1508;48.744;9.110;2023-01-16T06:59:46;3.00;99.90
2997;DHT22;1508;48.744;9.110;2023-01-16T07:02:32;2.90;99.90
2997;DHT22;1508;48.744;9.110;2023-01-16T07:05:17;2.80;99.90
2997;DHT22;1508;48.744;9.110;2023-01-16T07:08:03;2.80;99.90
2997;DHT22;1508;48.744;9.110;2023-01-16T07:10:49;2.80;99.90
2997;DHT22;1508;48.744;9.110;2023-01-16T07:13:35;2.70;99.90
2997;DHT22;1508;48.744;9.110;2023-01-16T07:16:21;2.70;99.90
2997;DHT22;1508;48.744;9.110;2023-01-16T07:19:11;2.70;99.90
2997;DHT22;1508;48.744;9.110;2023-01-16T07:21:57;2.60;99.90
2997;DHT22;1508;48.744;9.110;2023-01-16T07:24:42;2.60;99.90
2997;DHT22;1508;48.744;9.110;2023-01-16T07:27:29;2.60;99.90
2997;DHT22;1508;48.744;9.110;2023-01-16T07:30:17;2.60;99.90
2997;DHT22;1508;48.744;9.110;2023-01-16T07:33:03;2.60;99.90
2997;DHT22;1508;48.744;9.110;2023-01-16T07:35:49;2.70;99.90
2997;DHT22;1508;48.744;9.110;2023-01-16T07:38:35;2.80;99.90
2997;DHT22;1508;48.744;9.110;2023-01-16T07:41:21;2.80;99.90
2997;DHT22;1508;48.744;9.110;2023-01-16T07:44:07;2.80;99.90
2997;DHT22;1508;48.744;9.110;2023-01-16T07:46:53;2.70;99.90
2997;DHT22;1508;48.744;9.110;2023-01-16T07:49:38;2.70;99.90
2997;DHT22;1508;48.744;9.110;2023-01-16T07:52:24;2.70;99.90
2997;DHT22;1508;48.744;9.110;2023-01-16T07:55:10;2.70;99.90
2997;DHT22;1508;48.744;9.110;2023-01-16T07:57:56;2.70;99.90
2997;DHT22;1508;48.744;9.110;2023-01-16T08:00:42;2.70;99.90
2997;DHT22;1508;48.744;9.110;2023-01-16T08:03:28;2.70;99.90
2997;DHT22;1508;48.744;9.110;2023-01-16T08:06:13;2.80;99.90
2997;DHT22;1508;48.744;9.110;2023-01-16T08:08:59;2.70;99.90
2997;DHT22;1508;48.744;9.110;2023-01-16T08:11:45;2.80;99.90
2997;DHT22;1508;48.744;9.110;2023-01-16T08:14:31;2.80;99.90
2997;DHT22;1508;48.744;9.110;2023-01-16T08:17:17;2.80;99.90
2997;DHT22;1508;48.744;9.110;2023-01-16T08:20:03;2.90;99.90
2997;DHT22;1508;48.744;9.110;2023-01-16T08:22:50;2.90;99.90
2997;DHT22;1508;48.744;9.110;2023-01-16T08:25:36;3.00;99.90
2997;DHT22;1508;48.744;9.110;2023-01-16T08:28:22;3.00;99.90
2997;DHT22;1508;48.744;9.110;2023-01-16T08:31:13;3.10;99.90
2997;DHT22;1508;48.744;9.110;2023-01-16T08:33:59;3.10;99.90
2997;DHT22;1508;48.744;9.110;2023-01-16T08:36:44;3.10;99.90
2997;DHT22;1508;48.744;9.110;2023-01-16T08:39:30;3.10;99.90
2997;DHT22;1508;48.744;9.110;2023-01-16T08:42:16;3.20;99.90
2997;DHT22;1508;48.744;9.110;2023-01-16T08:45:02;3.20;99.90
2997;DHT22;1508;48.744;9.110;2023-01-16T08:47:48;3.30;99.90
2997;DHT22;1508;48.744;9.110;2023-01-16T08:50:34;3.30;99.90
2997;DHT22;1508;48.744;9.110;2023-01-16T08:53:20;3.30;99.90
2997;DHT22;1508;48.744;9.110;2023-01-16T08:56:06;3.30;99.90
2997;DHT22;1508;48.744;9.110;2023-01-16T08:58:52;3.40;99.90
2997;DHT22;1508;48.744;9.110;2023-01-16T09:01:38;3.30;99.90
2997;DHT22;1508;48.744;9.110;2023-01-16T09:04:24;3.40;99.90
2997;DHT22;1508;48.744;9.110;2023-01-16T09:07:10;3.40;99.90
2997;DHT22;1508;48.744;9.110;2023-01-16T09:09:56;3.40;99.90
2997;DHT22;1508;48.744;9.110;2023-01-16T09:12:41;3.50;99.90
2997;DHT22;1508;48.744;9.110;2023-01-16T09:15:28;3.50;99.90
2997;DHT22;1508;48.744;9.110;2023-01-16T09:18:14;3.60;99.90
2997;DHT22;1508;48.744;9.110;2023-01-16T09:21:00;3.60;99.90
2997;DHT22;1508;48.744;9.110;2023-01-16T09:23:46;3.60;99.90
2997;DHT22;1508;48.744;9.110;2023-01-16T09:26:32;3.70;99.90
2997;DHT22;1508;48.744;9.110;2023-01-16T09:29:18;3.70;99.90
2997;DHT22;1508;48.744;9.110;2023-01-16T09:32:03;3.80;99.90
2997;DHT22;1508;48.744;9.110;2023-01-16T09:34:49;3.80;99.90
2997;DHT22;1508;48.744;9.110;2023-01-16T09:37:35;3.90;99.90
2997;DHT22;1508;48.744;9.110;2023-01-16T09:40:21;3.90;99.90
2997;DHT22;1508;48.744;9.110;2023-01-16T09:43:40;4.10;99.90
2997;DHT22;1508;48.744;9.110;2023-01-16T09:46:28;4.20;99.90
2997;DHT22;1508;48.744;9.110;2023-01-16T09:52:09;4.30;99.90
2997;DHT22;1508;48.744;9.110;2023-01-16T09:55:00;4.50;99.90
2997;DHT22;1508;48.744;9.110;2023-01-16T09:57:49;4.40;99.90
2997;DHT22;1508;48.744;9.110;2023-01-16T10:00:36;4.40;99.90
2997;DHT22;1508;48.744;9.110;2023-01-16T10:03:23;4.40;99.90
2997;DHT22;1508;48.744;9.110;2023-01-16T10:10:19;4.20;99.90
2997;DHT22;1508;48.744;9.110;2023-01-16T10:16:41;4.20;99.90
2997;DHT22;1508;48.744;9.110;2023-01-16T10:25:30;4.20;99.90
2997;DHT22;1508;48.744;9.110;2023-01-16T10:31:08;4.20;99.90
2997;DHT22;1508;48.744;9.110;2023-01-16T10:34:00;4.30;99.90
2997;DHT22;1508;48.744;9.110;2023-01-16T10:36:50;4.30;99.90
2997;DHT22;1508;48.744;9.110;2023-01-16T10:39:37;4.40;99.90
2997;DHT22;1508;48.744;9.110;2023-01-16T10:42:28;4.50;99.90
2997;DHT22;1508;48.744;9.110;2023-01-16T10:45:25;4.60;99.90
2997;DHT22;1508;48.744;9.110;2023-01-16T10:48:14;4.60;99.90
2997;DHT22;1508;48.744;9.110;2023-01-16T10:51:01;4.60;99.90
2997;DHT22;1508;48.744;9.110;2023-01-16T10:53:48;4.70;99.90
2997;DHT22;1508;48.744;9.110;2023-01-16T10:56:34;4.80;99.90
2997;DHT22;1508;48.744;9.110;2023-01-16T10:59:20;4.80;99.90
2997;DHT22;1508;48.744;9.110;2023-01-16T11:02:29;4.90;99.90
2997;DHT22;1508;48.744;9.110;2023-01-16T11:08:12;4.90;99.90
2997;DHT22;1508;48.744;9.110;2023-01-16T11:10:59;5.00;99.90
2997;DHT22;1508;48.744;9.110;2023-01-16T11:13:45;5.00;99.90
2997;DHT22;1508;48.744;9.110;2023-01-16T11:16:30;5.10;99.90
2997;DHT22;1508;48.744;9.110;2023-01-16T11:22:21;5.20;99.90
2997;DHT22;1508;48.744;9.110;2023-01-16T11:25:13;5.20;99.90
2997;DHT22;1508;48.744;9.110;2023-01-16T11:28:02;5.30;99.90
2997;DHT22;1508;48.744;9.110;2023-01-16T11:31:02;5.40;99.90
2997;DHT22;1508;48.744;9.110;2023-01-16T11:33:53;5.40;99.90
2997;DHT22;1508;48.744;9.110;2023-01-16T11:36:39;5.40;99.90
2997;DHT22;1508;48.744;9.110;2023-01-16T11:39:28;5.40;99.90
2997;DHT22;1508;48.744;9.110;2023-01-16T11:42:14;5.40;99.90
2997;DHT22;1508;48.744;9.110;2023-01-16T11:45:14;5.30;99.90
2997;DHT22;1508;48.744;9.110;2023-01-16T11:48:04;5.30;99.90
2997;DHT22;1508;48.744;9.110;2023-01-16T11:51:00;5.30;99.90
2997;DHT22;1508;48.744;9.110;2023-01-16T11:53:48;5.40;99.90
2997;DHT22;1508;48.744;9.110;2023-01-16T11:56:43;5.40;99.90
2997;DHT22;1508;48.744;9.110;2023-01-16T12:06:36;5.60;99.90
2997;DHT22;1508;48.744;9.110;2023-01-16T12:12:40;5.60;99.90
2997;DHT22;1508;48.744;9.110;2023-01-16T12:22:22;5.80;99.90
2997;DHT22;1508;48.744;9.110;2023-01-16T12:28:32;5.70;99.90
2997;DHT22;1508;48.744;9.110;2023-01-16T12:43:39;5.80;99.90
2997;DHT22;1508;48.744;9.110;2023-01-16T12:46:43;6.00;99.90
2997;DHT22;1508;48.744;9.110;2023-01-16T12:49:53;6.00;99.90
2997;DHT22;1508;48.744;9.110;2023-01-16T12:53:10;6.00;99.90
2997;DHT22;1508;48.744;9.110;2023-01-16T12:56:23;5.90;99.90
2997;DHT22;1508;48.744;9.110;2023-01-16T12:59:24;5.90;99.90
2997;DHT22;1508;48.744;9.110;2023-01-16T13:05:17;5.90;99.90
2997;DHT22;1508;48.744;9.110;2023-01-16T13:11:28;5.90;99.90
2997;DHT22;1508;48.744;9.110;2023-01-16T13:14:18;5.90;99.90
2997;DHT22;1508;48.744;9.110;2023-01-16T13:17:12;6.00;99.90
2997;DHT22;1508;48.744;9.110;2023-01-16T13:20:02;6.00;99.90
2997;DHT22;1508;48.744;9.110;2023-01-16T13:22:55;6.10;99.90
2997;DHT22;1508;48.744;9.110;2023-01-16T13:25:45;6.10;99.90
2997;DHT22;1508;48.744;9.110;2023-01-16T13:31:51;6.40;99.90
2997;DHT22;1508;48.744;9.110;2023-01-16T13:34:44;6.40;99.90
2997;DHT22;1508;48.744;9.110;2023-01-16T13:43:31;6.80;99.90
2997;DHT22;1508;48.744;9.110;2023-01-16T13:46:19;6.80;99.90
2997;DHT22;1508;48.744;9.110;2023-01-16T13:49:06;6.90;99.90
2997;DHT22;1508;48.744;9.110;2023-01-16T13:51:57;6.80;99.90
2997;DHT22;1508;48.744;9.110;2023-01-16T13:54:47;6.80;99.90
2997;DHT22;1508;48.744;9.110;2023-01-16T13:57:33;6.70;99.90
2997;DHT22;1508;48.744;9.110;2023-01-16T14:00:19;6.60;99.90
2997;DHT22;1508;48.744;9.110;2023-01-16T14:03:28;6.50;99.90
2997;DHT22;1508;48.744;9.110;2023-01-16T14:06:25;6.20;99.90
2997;DHT22;1508;48.744;9.110;2023-01-16T14:12:20;6.20;99.90
2997;DHT22;1508;48.744;9.110;2023-01-16T14:15:22;6.20;99.90
2997;DHT22;1508;48.744;9.110;2023-01-16T14:18:21;6.20;99.90
2997;DHT22;1508;48.744;9.110;2023-01-16T14:21:26;6.10;99.90
2997;DHT22;1508;48.744;9.110;2023-01-16T14:24:18;6.00;99.90
2997;DHT22;1508;48.744;9.110;2023-01-16T14:27:12;5.80;99.90
2997;DHT22;1508;48.744;9.110;2023-01-16T14:30:01;5.60;99.90
2997;DHT22;1508;48.744;9.110;2023-01-16T14:32:55;5.60;99.90
2997;DHT22;1508;48.744;9.110;2023-01-16T14:35:45;5.50;99.90
2997;DHT22;1508;48.744;9.110;2023-01-16T14:38:32;5.40;99.90
2997;DHT22;1508;48.744;9.110;2023-01-16T14:41:29;5.40;99.90
2997;DHT22;1508;48.744;9.110;2023-01-16T14:44:20;5.40;99.90
2997;DHT22;1508;48.744;9.110;2023-01-16T14:47:11;5.30;99.90
2997;DHT22;1508;48.744;9.110;2023-01-16T14:50:14;5.30;99.90
2997;DHT22;1508;48.744;9.110;2023-01-16T14:53:14;5.20;99.90
2997;DHT22;1508;48.744;9.110;2023-01-16T14:59:06;5.20;99.90
2997;DHT22;1508;48.744;9.110;2023-01-16T15:02:10;5.10;99.90
2997;DHT22;1508;48.744;9.110;2023-01-16T15:07:53;5.10;99.90
2997;DHT22;1508;48.744;9.110;2023-01-16T15:10:40;5.10;99.90
2997;DHT22;1508;48.744;9.110;2023-01-16T15:13:30;5.10;99.90
2997;DHT22;1508;48.744;9.110;2023-01-16T15:16:22;5.10;99.90
2997;DHT22;1508;48.744;9.110;2023-01-16T15:19:20;5.10;99.90
2997;DHT22;1508;48.744;9.110;2023-01-16T15:22:19;5.10;99.90
2997;DHT22;1508;48.744;9.110;2023-01-16T15:25:39;5.20;99.90
2997;DHT22;1508;48.744;9.110;2023-01-16T15:31:16;5.30;99.90
2997;DHT22;1508;48.744;9.110;2023-01-16T15:34:24;5.40;99.90
2997;DHT22;1508;48.744;9.110;2023-01-16T15:37:22;5.40;99.90
2997;DHT22;1508;48.744;9.110;2023-01-16T15:40:21;5.40;99.90
2997;DHT22;1508;48.744;9.110;2023-01-16T15:43:09;5.20;99.90
2997;DHT22;1508;48.744;9.110;2023-01-16T15:46:22;5.10;99.90
2997;DHT22;1508;48.744;9.110;2023-01-16T15:49:18;5.00;99.90
2997;DHT22;1508;48.744;9.110;2023-01-16T15:52:07;4.90;99.90
2997;DHT22;1508;48.744;9.110;2023-01-16T15:54:52;4.80;99.90
2997;DHT22;1508;48.744;9.110;2023-01-16T15:57:44;4.80;99.90
2997;DHT22;1508;48.744;9.110;2023-01-16T16:00:33;4.70;99.90
2997;DHT22;1508;48.744;9.110;2023-01-16T16:03:21;4.70;99.90
2997;DHT22;1508;48.744;9.110;2023-01-16T16:06:13;4.60;99.90
2997;DHT22;1508;48.744;9.110;2023-01-16T16:08:59;4.60;99.90
2997;DHT22;1508;48.744;9.110;2023-01-16T16:11:46;4.50;99.90
2997;DHT22;1508;48.744;9.110;2023-01-16T16:14:34;4.50;99.90
2997;DHT22;1508;48.744;9.110;2023-01-16T16:17:32;4.40;99.90
2997;DHT22;1508;48.744;9.110;2023-01-16T16:20:37;4.30;99.90
2997;DHT22;1508;48.744;9.110;2023-01-16T16:23:25;4.20;99.90
2997;DHT22;1508;48.744;9.110;2023-01-16T16:26:13;4.30;99.90
2997;DHT22;1508;48.744;9.110;2023-01-16T16:29:00;4.20;99.90
2997;DHT22;1508;48.744;9.110;2023-01-16T16:31:47;4.20;99.90
2997;DHT22;1508;48.744;9.110;2023-01-16T16:34:33;4.20;99.90
2997;DHT22;1508;48.744;9.110;2023-01-16T16:37:21;4.10;99.90
2997;DHT22;1508;48.744;9.110;2023-01-16T16:40:13;4.10;99.90
2997;DHT22;1508;48.744;9.110;2023-01-16T16:42:59;4.00;99.90
2997;DHT22;1508;48.744;9.110;2023-01-16T16:45:45;4.00;99.90
2997;DHT22;1508;48.744;9.110;2023-01-16T16:48:31;4.00;99.90
2997;DHT22;1508;48.744;9.110;2023-01-16T16:51:27;4.00;99.90
2997;DHT22;1508;48.744;9.110;2023-01-16T16:54:14;3.90;99.90
2997;DHT22;1508;48.744;9.110;2023-01-16T16:57:00;3.80;99.90
2997;DHT22;1508;48.744;9.110;2023-01-16T16:59:47;3.80;99.90
2997;DHT22;1508;48.744;9.110;2023-01-16T17:02:34;3.70;99.90
2997;DHT22;1508;48.744;9.110;2023-01-16T17:05:20;3.70;99.90
2997;DHT22;1508;48.744;9.110;2023-01-16T17:08:06;3.70;99.90
2997;DHT22;1508;48.744;9.110;2023-01-16T17:10:51;3.70;99.90
2997;DHT22;1508;48.744;9.110;2023-01-16T17:13:37;3.70;99.90
2997;DHT22;1508;48.744;9.110;2023-01-16T17:16:25;3.70;99.90
2997;DHT22;1508;48.744;9.110;2023-01-16T17:19:21;3.70;99.90
2997;DHT22;1508;48.744;9.110;2023-01-16T17:22:09;3.70;99.90
2997;DHT22;1508;48.744;9.110;2023-01-16T17:24:55;3.70;99.90
2997;DHT22;1508;48.744;9.110;2023-01-16T17:27:41;3.70;99.90
2997;DHT22;1508;48.744;9.110;2023-01-16T17:30:27;3.60;99.90
2997;DHT22;1508;48.744;9.110;2023-01-16T17:33:15;3.60;99.90
2997;DHT22;1508;48.744;9.110;2023-01-16T17:36:01;3.60;99.90
2997;DHT22;1508;48.744;9.110;2023-01-16T17:38:47;3.60;99.90
2997;DHT22;1508;48.744;9.110;2023-01-16T17:41:35;3.50;99.90
2997;DHT22;1508;48.744;9.110;2023-01-16T17:44:23;3.60;99.90
2997;DHT22;1508;48.744;9.110;2023-01-16T17:47:10;3.60;99.90
2997;DHT22;1508;48.744;9.110;2023-01-16T17:49:56;3.60;99.90
2997;DHT22;1508;48.744;9.110;2023-01-16T17:52:42;3.60;99.90
2997;DHT22;1508;48.744;9.110;2023-01-16T17:55:27;3.60;99.90
2997;DHT22;1508;48.744;9.110;2023-01-16T17:58:13;3.50;99.90
2997;DHT22;1508;48.744;9.110;2023-01-16T18:01:02;3.60;99.90
2997;DHT22;1508;48.744;9.110;2023-01-16T18:03:56;3.60;99.90
2997;DHT22;1508;48.744;9.110;2023-01-16T18:06:42;3.60;99.90
2997;DHT22;1508;48.744;9.110;2023-01-16T18:09:28;3.60;99.90
2997;DHT22;1508;48.744;9.110;2023-01-16T18:12:14;3.60;99.90
2997;DHT22;1508;48.744;9.110;2023-01-16T18:15:00;3.60;99.90
2997;DHT22;1508;48.744;9.110;2023-01-16T18:17:46;3.60;99.90
2997;DHT22;1508;48.744;9.110;2023-01-16T18:20:31;3.60;99.90
2997;DHT22;1508;48.744;9.110;2023-01-16T18:23:17;3.60;99.90
2997;DHT22;1508;48.744;9.110;2023-01-16T18:26:03;3.60;99.90
2997;DHT22;1508;48.744;9.110;2023-01-16T18:28:49;3.60;99.90
2997;DHT22;1508;48.744;9.110;2023-01-16T18:31:35;3.60;99.90
2997;DHT22;1508;48.744;9.110;2023-01-16T18:34:21;3.60;99.90
2997;DHT22;1508;48.744;9.110;2023-01-16T18:37:07;3.50;99.90
2997;DHT22;1508;48.744;9.110;2023-01-16T18:39:53;3.50;99.90
2997;DHT22;1508;48.744;9.110;2023-01-16T18:42:39;3.50;99.90
2997;DHT22;1508;48.744;9.110;2023-01-16T18:45:25;3.40;99.90
2997;DHT22;1508;48.744;9.110;2023-01-16T18:48:12;3.40;99.90
2997;DHT22;1508;48.744;9.110;2023-01-16T18:50:59;3.40;99.90
2997;DHT22;1508;48.744;9.110;2023-01-16T18:53:50;3.40;99.90
2997;DHT22;1508;48.744;9.110;2023-01-16T18:56:40;3.40;99.90
2997;DHT22;1508;48.744;9.110;2023-01-16T18:59:27;3.50;99.90
2997;DHT22;1508;48.744;9.110;2023-01-16T19:05:03;3.50;99.90
2997;DHT22;1508;48.744;9.110;2023-01-16T19:07:51;3.50;99.90
2997;DHT22;1508;48.744;9.110;2023-01-16T19:10:38;3.40;99.90
2997;DHT22;1508;48.744;9.110;2023-01-16T19:13:24;3.40;99.90
2997;DHT22;1508;48.744;9.110;2023-01-16T19:16:10;3.40;99.90
2997;DHT22;1508;48.744;9.110;2023-01-16T19:18:56;3.40;99.90
2997;DHT22;1508;48.744;9.110;2023-01-16T19:21:42;3.40;99.90
2997;DHT22;1508;48.744;9.110;2023-01-16T19:24:28;3.40;99.90
2997;DHT22;1508;48.744;9.110;2023-01-16T19:27:14;3.30;99.90
2997;DHT22;1508;48.744;9.110;2023-01-16T19:30:00;3.30;99.90
2997;DHT22;1508;48.744;9.110;2023-01-16T19:32:46;3.30;99.90
2997;DHT22;1508;48.744;9.110;2023-01-16T19:35:32;3.30;99.90
2997;DHT22;1508;48.744;9.110;2023-01-16T19:38:17;3.20;99.90
2997;DHT22;1508;48.744;9.110;2023-01-16T19:41:05;3.30;99.90
2997;DHT22;1508;48.744;9.110;2023-01-16T19:43:51;3.30;99.90
2997;DHT22;1508;48.744;9.110;2023-01-16T19:46:37;3.20;99.90
2997;DHT22;1508;48.744;9.110;2023-01-16T19:49:23;3.20;99.90
2997;DHT22;1508;48.744;9.110;2023-01-16T19:52:10;3.10;99.90
2997;DHT22;1508;48.744;9.110;2023-01-16T19:54:56;3.00;99.90
2997;DHT22;1508;48.744;9.110;2023-01-16T19:57:42;3.10;99.90
2997;DHT22;1508;48.744;9.110;2023-01-16T20:00:27;3.00;99.90
2997;DHT22;1508;48.744;9.110;2023-01-16T20:03:13;3.00;99.90
2997;DHT22;1508;48.744;9.110;2023-01-16T20:05:59;3.00;99.90
2997;DHT22;1508;48.744;9.110;2023-01-16T20:08:45;3.00;99.90
2997;DHT22;1508;48.744;9.110;2023-01-16T20:11:31;3.00;99.90
2997;DHT22;1508;48.744;9.110;2023-01-16T20:14:17;3.00;99.90
2997;DHT22;1508;48.744;9.110;2023-01-16T20:17:03;3.10;99.90
2997;DHT22;1508;48.744;9.110;2023-01-16T20:19:49;3.10;99.90
2997;DHT22;1508;48.744;9.110;2023-01-16T20:22:36;3.10;99.90
2997;DHT22;1508;48.744;9.110;2023-01-16T20:25:22;3.00;99.90
2997;DHT22;1508;48.744;9.110;2023-01-16T20:28:08;3.00;99.90
2997;DHT22;1508;48.744;9.110;2023-01-16T20:30:54;3.00;99.90
2997;DHT22;1508;48.744;9.110;2023-01-16T20:33:40;3.00;99.90
2997;DHT22;1508;48.744;9.110;2023-01-16T20:36:26;3.00;99.90
2997;DHT22;1508;48.744;9.110;2023-01-16T20:39:11;3.00;99.90
2997;DHT22;1508;48.744;9.110;2023-01-16T20:41:57;3.00;99.90
2997;DHT22;1508;48.744;9.110;2023-01-16T20:44:43;3.00;99.90